createdAt,value
2022-07-29T00:01:19.374Z,3.22
2022-07-29T00:05:01.954Z,3.15
2022-07-29T00:08:43.709Z,3.67
2022-07-29T00:12:26.095Z,3.95
2022-07-29T00:16:08.678Z,3.47
2022-07-29T00:19:50.538Z,3.30
2022-07-29T00:23:36.482Z,3.42
2022-07-29T00:27:19.064Z,3.60
2022-07-29T00:31:01.907Z,3.33
2022-07-29T00:35:02.351Z,3.30
2022-07-29T00:38:46.214Z,3.17
2022-07-29T00:42:28.514Z,3.05
2022-07-29T00:46:10.556Z,2.90
2022-07-29T00:49:52.382Z,3.58
2022-07-29T00:53:37.103Z,3.40
2022-07-29T00:57:19.127Z,4.07
2022-07-29T01:01:01.030Z,3.53
2022-07-29T01:04:42.870Z,4.55
2022-07-29T01:08:24.756Z,4.03
2022-07-29T01:12:06.917Z,3.53
2022-07-29T01:15:57.919Z,4.00
2022-07-29T01:19:47.870Z,4.47
2022-07-29T01:23:48.029Z,3.92
2022-07-29T01:27:39.842Z,4.35
2022-07-29T01:31:43.744Z,3.53
2022-07-29T01:35:40.913Z,4.63
2022-07-29T01:39:27.229Z,4.35
2022-07-29T01:43:14.155Z,4.00
2022-07-29T01:46:58.693Z,4.90
2022-07-29T01:50:54.223Z,4.32
2022-07-29T01:54:43.867Z,4.38
2022-07-29T01:58:29.354Z,3.75
2022-07-29T02:02:11.411Z,4.25
2022-07-29T02:05:53.275Z,5.22
2022-07-29T02:09:36.790Z,4.40
2022-07-29T02:13:18.584Z,5.18
2022-07-29T02:17:00.439Z,4.22
2022-07-29T02:20:43.909Z,4.68
2022-07-29T02:24:26.051Z,4.35
2022-07-29T02:28:08.097Z,4.03
2022-07-29T02:31:50.525Z,5.00
2022-07-29T02:35:34.837Z,4.40
2022-07-29T02:39:16.883Z,4.50
2022-07-29T02:42:58.668Z,5.13
2022-07-29T02:47:03.576Z,4.47
2022-07-29T02:50:49.331Z,4.78
2022-07-29T02:54:55.249Z,3.67
2022-07-29T02:58:47.982Z,4.70
2022-07-29T03:02:29.788Z,4.03
2022-07-29T03:06:28.150Z,4.80
2022-07-29T03:10:17.203Z,4.53
2022-07-29T03:13:59.014Z,5.32
2022-07-29T03:17:40.906Z,5.85
2022-07-29T03:21:22.691Z,4.53
2022-07-29T03:25:14.665Z,5.07
2022-07-29T03:28:56.758Z,4.93
2022-07-29T03:32:38.891Z,5.30
2022-07-29T03:36:21.894Z,4.35
2022-07-29T03:40:06.229Z,5.07
2022-07-29T03:43:49.467Z,5.70
2022-07-29T03:47:49.940Z,4.95
2022-07-29T03:51:34.375Z,5.28
2022-07-29T03:55:16.318Z,5.50
2022-07-29T03:58:58.187Z,5.95
2022-07-29T04:02:40.321Z,5.78
2022-07-29T04:06:22.221Z,6.75
2022-07-29T04:10:04.206Z,6.60
2022-07-29T04:13:45.965Z,5.13
2022-07-29T04:17:27.780Z,5.93
2022-07-29T04:21:09.625Z,4.97
2022-07-29T04:24:51.496Z,5.22
2022-07-29T04:28:33.316Z,5.93
2022-07-29T04:32:15.103Z,5.15
2022-07-29T04:35:56.914Z,5.35
2022-07-29T04:39:38.708Z,5.32
2022-07-29T04:43:23.153Z,6.05
2022-07-29T04:47:05.674Z,6.45
2022-07-29T04:50:47.463Z,5.95
2022-07-29T04:54:29.272Z,5.88
2022-07-29T04:58:11.141Z,5.80
2022-07-29T05:01:53.058Z,5.68
2022-07-29T05:05:34.976Z,6.07
2022-07-29T05:09:16.801Z,5.28
2022-07-29T05:12:58.573Z,6.35
2022-07-29T05:16:41.209Z,5.97
2022-07-29T05:20:27.343Z,6.63
2022-07-29T05:24:09.211Z,6.70
2022-07-29T05:27:51.112Z,6.22
2022-07-29T05:31:34.431Z,5.57
2022-07-29T05:35:16.586Z,6.22
2022-07-29T05:38:58.644Z,6.35
2022-07-29T05:42:40.399Z,6.97
2022-07-29T05:46:22.314Z,5.63
2022-07-29T05:50:05.310Z,5.32
2022-07-29T05:53:47.091Z,5.53
2022-07-29T05:57:28.874Z,5.68
2022-07-29T06:01:10.676Z,6.65
2022-07-29T06:04:52.595Z,7.05
2022-07-29T06:08:34.925Z,6.32
2022-07-29T06:12:16.810Z,5.70
2022-07-29T06:16:07.978Z,6.55
2022-07-29T06:19:49.961Z,5.18
2022-07-29T06:23:31.767Z,5.68
2022-07-29T06:27:13.517Z,5.13
2022-07-29T06:30:55.384Z,4.40
2022-07-29T06:34:37.342Z,5.30
2022-07-29T06:38:31.095Z,3.95
2022-07-29T06:42:15.674Z,4.32
2022-07-29T06:45:57.626Z,4.28
2022-07-29T06:49:39.694Z,4.65
2022-07-29T06:53:21.558Z,4.68
2022-07-29T06:57:03.420Z,4.75
2022-07-29T07:00:46.052Z,4.18
2022-07-29T07:04:27.816Z,3.80
2022-07-29T07:08:09.643Z,4.68
2022-07-29T07:11:51.435Z,3.72
2022-07-29T07:15:38.974Z,3.83
2022-07-29T07:19:21.761Z,3.30
2022-07-29T07:23:03.611Z,2.90
2022-07-29T07:26:45.429Z,2.95
2022-07-29T07:30:28.177Z,3.20
2022-07-29T07:34:10.304Z,3.13
2022-07-29T07:37:52.116Z,2.80
2022-07-29T07:41:33.898Z,2.70
2022-07-29T07:45:16.600Z,1.70
2022-07-29T07:48:58.645Z,1.65
2022-07-29T07:52:54.091Z,1.88
2022-07-29T07:56:35.840Z,1.35
2022-07-29T08:00:17.920Z,1.85
2022-07-29T08:03:59.722Z,1.67
2022-07-29T08:07:42.586Z,1.35
2022-07-29T08:11:24.488Z,0.93
2022-07-29T08:15:08.621Z,1.48
2022-07-29T08:18:50.486Z,0.98
2022-07-29T08:22:32.421Z,1.00
2022-07-29T08:26:14.459Z,1.00
2022-07-29T08:29:56.915Z,0.77
2022-07-29T08:33:38.723Z,1.33
2022-07-29T08:37:20.482Z,0.80
2022-07-29T08:41:03.659Z,0.70
2022-07-29T08:44:45.492Z,0.52
2022-07-29T08:48:27.254Z,0.43
2022-07-29T08:52:11.220Z,0.77
2022-07-29T08:55:53.016Z,0.73
2022-07-29T08:59:34.826Z,0.30
2022-07-29T09:03:19.860Z,0.40
2022-07-29T09:07:02.197Z,0.75
2022-07-29T09:10:44.509Z,0.73
2022-07-29T09:14:26.333Z,0.50
2022-07-29T09:18:08.171Z,1.33
2022-07-29T09:22:04.056Z,1.15
2022-07-29T09:25:45.992Z,0.30
2022-07-29T09:29:31.169Z,0.50
2022-07-29T09:33:16.222Z,0.85
2022-07-29T09:36:58.548Z,0.35
2022-07-29T09:40:41.077Z,0.40
2022-07-29T09:44:23.337Z,0.85
2022-07-29T09:48:15.678Z,0.38
2022-07-29T09:52:04.881Z,0.40
2022-07-29T09:55:51.592Z,0.30
2022-07-29T09:59:34.049Z,0.22
2022-07-29T10:03:16.700Z,0.57
2022-07-29T10:07:05.070Z,0.30
2022-07-29T10:10:47.141Z,0.57
2022-07-29T10:14:28.971Z,0.43
2022-07-29T10:18:14.439Z,1.20
2022-07-29T10:21:58.219Z,0.20
2022-07-29T10:25:45.505Z,0.50
2022-07-29T10:29:28.160Z,0.28
2022-07-29T10:33:28.029Z,0.35
2022-07-29T10:37:35.367Z,0.40
2022-07-29T10:41:32.453Z,0.70
2022-07-29T10:45:25.563Z,0.60
2022-07-29T10:49:24.852Z,0.30
2022-07-29T10:53:07.039Z,0.40
2022-07-29T10:56:50.812Z,0.20
2022-07-29T11:00:35.723Z,0.52
2022-07-29T11:04:42.005Z,0.73
2022-07-29T11:08:26.018Z,0.43
2022-07-29T11:12:37.021Z,0.30
2022-07-29T11:16:21.325Z,0.30
2022-07-29T11:20:32.028Z,0.10
2022-07-29T11:24:29.189Z,0.43
2022-07-29T11:28:23.036Z,0.38
2022-07-29T11:32:22.674Z,0.17
2022-07-29T11:36:16.708Z,0.25
2022-07-29T11:40:02.227Z,0.35
2022-07-29T11:43:50.783Z,0.15
2022-07-29T11:47:39.500Z,0.10
2022-07-29T11:51:21.515Z,0.30
2022-07-29T11:55:23.507Z,0.32
2022-07-29T11:59:15.266Z,0.38
2022-07-29T12:02:57.990Z,0.30
2022-07-29T12:06:48.721Z,0.30
2022-07-29T12:10:33.820Z,0.10
2022-07-29T12:18:11.888Z,0.20
2022-07-29T12:21:56.642Z,0.10
2022-07-29T12:25:42.998Z,0.10
2022-07-29T12:29:35.567Z,0.10
2022-07-29T12:33:20.555Z,0.20
2022-07-29T12:40:44.719Z,0.20
2022-07-29T12:44:30.105Z,0.20
2022-07-29T12:48:12.019Z,0.15
2022-07-29T12:51:54.661Z,0.10
2022-07-29T12:55:52.265Z,0.20
2022-07-29T12:59:34.079Z,0.17
2022-07-29T13:03:20.254Z,0.10
2022-07-29T13:07:04.550Z,0.15
2022-07-29T13:10:47.023Z,0.22
2022-07-29T13:14:35.338Z,0.20
2022-07-29T13:18:30.987Z,0.10
2022-07-29T13:22:20.623Z,0.10
2022-07-29T13:26:17.169Z,0.20
2022-07-29T13:30:00.458Z,0.15
2022-07-29T13:33:42.325Z,0.20
2022-07-29T13:37:24.116Z,0.40
2022-07-29T13:41:05.958Z,0.10
2022-07-29T13:44:49.639Z,0.20
2022-07-29T13:48:31.530Z,0.20
2022-07-29T13:52:13.354Z,0.30
2022-07-29T13:55:55.971Z,0.20
2022-07-29T13:59:37.771Z,0.20
2022-07-29T14:03:19.548Z,0.20
2022-07-29T14:07:03.685Z,0.20
2022-07-29T14:10:46.081Z,0.20
2022-07-29T14:14:27.937Z,0.40
2022-07-29T14:18:09.774Z,0.40
2022-07-29T14:21:51.577Z,0.20
2022-07-29T14:25:33.475Z,0.10
2022-07-29T14:29:15.395Z,0.30
2022-07-29T14:32:57.226Z,0.20
2022-07-29T14:36:39.199Z,0.40
2022-07-29T14:40:21.027Z,0.32
2022-07-29T14:44:02.928Z,0.10
2022-07-29T14:47:44.677Z,0.20
2022-07-29T14:51:32.484Z,0.68
2022-07-29T14:55:16.593Z,0.30
2022-07-29T14:59:01.977Z,0.17
2022-07-29T15:03:00.903Z,0.20
2022-07-29T15:06:44.081Z,0.10
2022-07-29T15:10:27.971Z,0.20
2022-07-29T15:14:09.913Z,0.65
2022-07-29T15:17:51.707Z,0.50
2022-07-29T15:21:33.564Z,0.32
2022-07-29T15:25:15.366Z,0.10
2022-07-29T15:28:57.135Z,0.13
2022-07-29T15:32:38.920Z,0.15
2022-07-29T15:36:50.141Z,0.20
2022-07-29T15:40:22.711Z,0.30
2022-07-29T15:44:04.708Z,0.52
2022-07-29T15:47:46.536Z,0.60
2022-07-29T15:51:28.405Z,0.63
2022-07-29T15:55:10.326Z,0.93
2022-07-29T15:58:52.138Z,0.30
2022-07-29T16:02:34.042Z,0.88
2022-07-29T16:06:16.627Z,1.05
2022-07-29T16:09:58.439Z,0.45
2022-07-29T16:13:40.466Z,0.47
2022-07-29T16:17:22.369Z,0.50
2022-07-29T16:21:04.165Z,0.50
2022-07-29T16:24:45.991Z,0.82
2022-07-29T16:28:28.717Z,0.60
2022-07-29T16:32:10.648Z,0.65
2022-07-29T16:35:52.589Z,0.60
2022-07-29T16:39:34.394Z,0.85
2022-07-29T16:43:16.254Z,0.95
2022-07-29T16:46:59.698Z,0.88
2022-07-29T16:50:43.317Z,0.45
2022-07-29T16:54:25.541Z,0.80
2022-07-29T16:58:07.400Z,1.67
2022-07-29T17:01:49.315Z,0.60
2022-07-29T17:05:52.373Z,0.60
2022-07-29T17:09:33.134Z,0.50
2022-07-29T17:13:15.023Z,0.80
2022-07-29T17:17:01.370Z,0.70
2022-07-29T17:20:43.618Z,1.13
2022-07-29T17:24:25.409Z,1.30
2022-07-29T17:28:07.236Z,0.90
2022-07-29T17:31:49.058Z,0.85
2022-07-29T17:35:49.297Z,0.90
2022-07-29T17:39:31.071Z,0.95
2022-07-29T17:43:12.869Z,0.70
2022-07-29T17:46:54.939Z,0.93
2022-07-29T17:50:36.861Z,0.47
2022-07-29T17:54:18.716Z,0.63
2022-07-29T17:58:00.497Z,0.63
2022-07-29T18:01:42.384Z,1.20
2022-07-29T18:05:24.217Z,0.52
2022-07-29T18:09:06.084Z,0.63
2022-07-29T18:12:48.009Z,1.35
2022-07-29T18:16:29.861Z,0.93
2022-07-29T18:20:11.892Z,0.52
2022-07-29T18:23:53.667Z,1.60
2022-07-29T18:27:35.437Z,1.13
2022-07-29T18:31:17.300Z,1.10
2022-07-29T18:35:02.716Z,0.75
2022-07-29T18:38:44.673Z,0.70
2022-07-29T18:42:26.435Z,0.77
2022-07-29T18:46:08.335Z,0.80
2022-07-29T18:49:50.190Z,0.43
2022-07-29T18:53:32.196Z,0.77
2022-07-29T18:57:55.077Z,0.80
2022-07-29T19:01:20.666Z,0.70
2022-07-29T19:05:02.499Z,0.60
2022-07-29T19:08:44.369Z,0.60
2022-07-29T19:12:26.609Z,1.58
2022-07-29T19:16:11.916Z,0.50
2022-07-29T19:19:53.931Z,1.05
2022-07-29T19:24:01.489Z,0.50
2022-07-29T19:27:37.692Z,0.80
2022-07-29T19:31:19.561Z,0.70
2022-07-29T19:35:19.790Z,0.90
2022-07-29T19:39:01.761Z,0.82
2022-07-29T19:42:43.914Z,0.98
2022-07-29T19:46:28.733Z,1.33
2022-07-29T19:50:10.679Z,1.40
2022-07-29T19:53:52.562Z,1.10
2022-07-29T19:57:40.761Z,1.50
2022-07-29T20:01:24.676Z,1.48
2022-07-29T20:05:07.222Z,1.35
2022-07-29T20:08:49.512Z,1.52
2022-07-29T20:12:31.320Z,2.10
2022-07-29T20:16:13.248Z,1.38
2022-07-29T20:19:56.341Z,1.70
2022-07-29T20:23:38.186Z,1.83
2022-07-29T20:27:20.022Z,2.33
2022-07-29T20:31:01.901Z,2.17
2022-07-29T20:34:43.735Z,1.90
2022-07-29T20:38:25.522Z,2.05
2022-07-29T20:42:07.494Z,2.78
2022-07-29T20:45:49.410Z,3.42
2022-07-29T20:49:31.276Z,2.97
2022-07-29T20:53:13.582Z,2.40
2022-07-29T20:56:55.374Z,2.28
2022-07-29T21:00:37.466Z,3.08
2022-07-29T21:04:19.354Z,3.45
2022-07-29T21:08:01.194Z,4.00
2022-07-29T21:11:44.443Z,3.28
2022-07-29T21:15:28.511Z,2.97
2022-07-29T21:19:10.320Z,2.53
2022-07-29T21:22:55.446Z,3.10
2022-07-29T21:26:37.267Z,2.72
2022-07-29T21:30:19.258Z,2.80
2022-07-29T21:34:01.091Z,2.17
2022-07-29T21:37:42.893Z,2.65
2022-07-29T21:41:24.774Z,2.63
2022-07-29T21:45:06.972Z,2.20
2022-07-29T21:48:48.832Z,2.42
2022-07-29T21:52:30.678Z,2.83
2022-07-29T21:56:14.563Z,2.63
2022-07-29T22:00:02.155Z,2.15
2022-07-29T22:03:44.643Z,3.20
2022-07-29T22:07:54.514Z,2.60
2022-07-29T22:11:28.323Z,4.78
2022-07-29T22:15:10.560Z,3.20
2022-07-29T22:18:52.870Z,3.47
2022-07-29T22:22:35.591Z,4.72
2022-07-29T22:26:17.488Z,3.97
2022-07-29T22:29:59.611Z,3.45
2022-07-29T22:33:41.990Z,3.30
2022-07-29T22:37:24.373Z,4.00
2022-07-29T22:41:06.345Z,4.03
2022-07-29T22:44:48.140Z,4.30
2022-07-29T22:48:29.997Z,3.33
2022-07-29T22:52:11.846Z,3.97
2022-07-29T22:55:56.509Z,3.78
2022-07-29T22:59:38.380Z,3.80
2022-07-29T23:03:21.047Z,4.13
2022-07-29T23:07:03.091Z,4.43
2022-07-29T23:10:45.276Z,3.72
2022-07-29T23:14:27.049Z,3.90
2022-07-29T23:18:09.036Z,4.53
2022-07-29T23:21:50.825Z,5.03
2022-07-29T23:25:32.663Z,4.47
2022-07-29T23:29:14.501Z,5.35
2022-07-29T23:32:56.346Z,5.60
2022-07-29T23:36:38.174Z,4.93
2022-07-29T23:40:19.986Z,5.13
2022-07-29T23:44:01.754Z,4.30
2022-07-29T23:47:43.670Z,4.50
2022-07-29T23:51:25.989Z,5.00
2022-07-29T23:55:37.546Z,4.95
2022-07-29T23:59:10.733Z,4.97
